sensor_id;sensor_type;location;lat;lon;timestamp;temperature;humidity
18392;DHT22;9322;50.932;5.318;2023-07-20T00:01:38;16.70;1.40
18392;DHT22;9322;50.932;5.318;2023-07-20T00:04:04;16.70;1.40
18392;DHT22;9322;50.932;5.318;2023-07-20T00:06:29;16.70;1.40
18392;DHT22;9322;50.932;5.318;2023-07-20T00:08:55;16.60;1.40
18392;DHT22;9322;50.932;5.318;2023-07-20T00:11:25;16.60;1.40
18392;DHT22;9322;50.932;5.318;2023-07-20T00:13:51;16.50;1.40
18392;DHT22;9322;50.932;5.318;2023-07-20T00:16:16;16.40;1.40
18392;DHT22;9322;50.932;5.318;2023-07-20T00:18:42;16.40;1.40
18392;DHT22;9322;50.932;5.318;2023-07-20T00:21:08;16.40;1.40
18392;DHT22;9322;50.932;5.318;2023-07-20T00:23:33;16.30;1.40
18392;DHT22;9322;50.932;5.318;2023-07-20T00:25:59;16.30;1.40
18392;DHT22;9322;50.932;5.318;2023-07-20T00:28:24;16.30;1.40
18392;DHT22;9322;50.932;5.318;2023-07-20T00:30:50;16.30;1.40
18392;DHT22;9322;50.932;5.318;2023-07-20T00:33:17;16.20;1.40
18392;DHT22;9322;50.932;5.318;2023-07-20T00:35:43;16.30;1.40
18392;DHT22;9322;50.932;5.318;2023-07-20T00:38:09;16.30;1.40
18392;DHT22;9322;50.932;5.318;2023-07-20T00:40:38;16.20;1.40
18392;DHT22;9322;50.932;5.318;2023-07-20T00:43:04;16.30;1.40
18392;DHT22;9322;50.932;5.318;2023-07-20T00:45:30;16.30;1.40
18392;DHT22;9322;50.932;5.318;2023-07-20T00:47:57;16.30;1.40
18392;DHT22;9322;50.932;5.318;2023-07-20T00:50:26;16.30;1.40
18392;DHT22;9322;50.932;5.318;2023-07-20T00:52:54;16.40;1.40
18392;DHT22;9322;50.932;5.318;2023-07-20T00:55:20;16.30;1.40
18392;DHT22;9322;50.932;5.318;2023-07-20T00:57:46;16.40;1.40
18392;DHT22;9322;50.932;5.318;2023-07-20T01:00:12;16.50;1.40
18392;DHT22;9322;50.932;5.318;2023-07-20T01:02:38;16.40;1.40
18392;DHT22;9322;50.932;5.318;2023-07-20T01:05:04;16.40;1.40
18392;DHT22;9322;50.932;5.318;2023-07-20T01:07:57;16.40;1.40
18392;DHT22;9322;50.932;5.318;2023-07-20T01:10:27;16.30;1.40
18392;DHT22;9322;50.932;5.318;2023-07-20T01:12:55;16.30;1.40
18392;DHT22;9322;50.932;5.318;2023-07-20T01:15:21;16.40;1.40
18392;DHT22;9322;50.932;5.318;2023-07-20T01:17:47;16.50;1.40
18392;DHT22;9322;50.932;5.318;2023-07-20T01:20:14;16.50;1.40
18392;DHT22;9322;50.932;5.318;2023-07-20T01:27:54;16.70;1.40
18392;DHT22;9322;50.932;5.318;2023-07-20T01:33:20;16.60;1.40
18392;DHT22;9322;50.932;5.318;2023-07-20T01:35:51;16.60;1.40
18392;DHT22;9322;50.932;5.318;2023-07-20T01:38:18;16.60;1.40
18392;DHT22;9322;50.932;5.318;2023-07-20T01:40:45;16.60;1.40
18392;DHT22;9322;50.932;5.318;2023-07-20T01:43:11;16.60;1.40
18392;DHT22;9322;50.932;5.318;2023-07-20T01:45:37;16.40;1.40
18392;DHT22;9322;50.932;5.318;2023-07-20T01:48:03;16.30;1.40
18392;DHT22;9322;50.932;5.318;2023-07-20T01:50:29;16.40;1.40
18392;DHT22;9322;50.932;5.318;2023-07-20T01:52:55;16.40;1.40
18392;DHT22;9322;50.932;5.318;2023-07-20T01:55:20;16.40;1.40
18392;DHT22;9322;50.932;5.318;2023-07-20T01:57:46;16.40;1.40
18392;DHT22;9322;50.932;5.318;2023-07-20T02:00:12;16.20;1.40
18392;DHT22;9322;50.932;5.318;2023-07-20T02:02:38;16.20;1.40
18392;DHT22;9322;50.932;5.318;2023-07-20T02:05:03;16.10;1.40
18392;DHT22;9322;50.932;5.318;2023-07-20T02:07:29;16.10;1.40
18392;DHT22;9322;50.932;5.318;2023-07-20T02:09:54;16.10;1.40
18392;DHT22;9322;50.932;5.318;2023-07-20T02:12:20;16.10;1.40
18392;DHT22;9322;50.932;5.318;2023-07-20T02:14:46;16.10;1.40
18392;DHT22;9322;50.932;5.318;2023-07-20T02:17:11;16.10;1.40
18392;DHT22;9322;50.932;5.318;2023-07-20T02:19:37;16.10;1.40
18392;DHT22;9322;50.932;5.318;2023-07-20T02:22:04;15.90;1.40
18392;DHT22;9322;50.932;5.318;2023-07-20T02:24:29;15.90;1.40
18392;DHT22;9322;50.932;5.318;2023-07-20T02:26:55;15.90;1.40
18392;DHT22;9322;50.932;5.318;2023-07-20T02:29:20;15.90;1.40
18392;DHT22;9322;50.932;5.318;2023-07-20T02:31:46;15.90;1.40
18392;DHT22;9322;50.932;5.318;2023-07-20T02:34:12;16.00;1.40
18392;DHT22;9322;50.932;5.318;2023-07-20T02:36:37;15.90;1.40
18392;DHT22;9322;50.932;5.318;2023-07-20T02:39:03;15.80;1.40
18392;DHT22;9322;50.932;5.318;2023-07-20T02:41:33;15.80;1.40
18392;DHT22;9322;50.932;5.318;2023-07-20T02:43:59;15.80;1.40
18392;DHT22;9322;50.932;5.318;2023-07-20T02:46:24;15.70;1.40
18392;DHT22;9322;50.932;5.318;2023-07-20T02:48:50;15.60;1.40
18392;DHT22;9322;50.932;5.318;2023-07-20T02:51:16;15.70;1.40
18392;DHT22;9322;50.932;5.318;2023-07-20T02:53:41;15.70;1.40
18392;DHT22;9322;50.932;5.318;2023-07-20T02:56:07;15.70;1.40
18392;DHT22;9322;50.932;5.318;2023-07-20T02:58:34;15.70;1.40
18392;DHT22;9322;50.932;5.318;2023-07-20T03:01:04;15.60;1.40
18392;DHT22;9322;50.932;5.318;2023-07-20T03:03:29;15.50;1.40
18392;DHT22;9322;50.932;5.318;2023-07-20T03:05:55;15.50;1.40
18392;DHT22;9322;50.932;5.318;2023-07-20T03:08:24;15.50;1.40
18392;DHT22;9322;50.932;5.318;2023-07-20T03:10:50;15.40;1.40
18392;DHT22;9322;50.932;5.318;2023-07-20T03:13:16;15.40;1.40
18392;DHT22;9322;50.932;5.318;2023-07-20T03:15:41;15.40;1.40
18392;DHT22;9322;50.932;5.318;2023-07-20T03:18:07;15.30;1.40
18392;DHT22;9322;50.932;5.318;2023-07-20T03:20:32;15.30;1.40
18392;DHT22;9322;50.932;5.318;2023-07-20T03:23:00;15.30;1.40
18392;DHT22;9322;50.932;5.318;2023-07-20T03:25:26;15.30;1.40
18392;DHT22;9322;50.932;5.318;2023-07-20T03:27:51;15.30;1.40
18392;DHT22;9322;50.932;5.318;2023-07-20T03:30:17;15.40;1.40
18392;DHT22;9322;50.932;5.318;2023-07-20T03:32:42;15.40;1.40
18392;DHT22;9322;50.932;5.318;2023-07-20T03:35:08;15.40;1.40
18392;DHT22;9322;50.932;5.318;2023-07-20T03:37:34;15.50;1.40
18392;DHT22;9322;50.932;5.318;2023-07-20T03:40:02;15.50;1.40
18392;DHT22;9322;50.932;5.318;2023-07-20T03:42:28;15.60;1.40
18392;DHT22;9322;50.932;5.318;2023-07-20T03:44:53;15.60;1.40
18392;DHT22;9322;50.932;5.318;2023-07-20T03:47:19;15.60;1.40
18392;DHT22;9322;50.932;5.318;2023-07-20T03:49:45;15.70;1.40
18392;DHT22;9322;50.932;5.318;2023-07-20T03:52:10;15.80;1.40
18392;DHT22;9322;50.932;5.318;2023-07-20T03:54:36;15.80;1.40
18392;DHT22;9322;50.932;5.318;2023-07-20T03:57:01;15.90;1.40
18392;DHT22;9322;50.932;5.318;2023-07-20T03:59:27;15.90;1.40
18392;DHT22;9322;50.932;5.318;2023-07-20T04:01:53;16.00;1.40
18392;DHT22;9322;50.932;5.318;2023-07-20T04:04:18;16.00;1.40
18392;DHT22;9322;50.932;5.318;2023-07-20T04:06:44;16.10;1.40
18392;DHT22;9322;50.932;5.318;2023-07-20T04:09:10;16.10;1.40
18392;DHT22;9322;50.932;5.318;2023-07-20T04:11:36;16.10;1.40
18392;DHT22;9322;50.932;5.318;2023-07-20T04:14:01;16.10;1.40
18392;DHT22;9322;50.932;5.318;2023-07-20T04:16:27;16.20;1.40
18392;DHT22;9322;50.932;5.318;2023-07-20T04:18:55;16.10;1.40
18392;DHT22;9322;50.932;5.318;2023-07-20T04:21:21;16.10;1.40
18392;DHT22;9322;50.932;5.318;2023-07-20T04:23:47;16.10;1.40
18392;DHT22;9322;50.932;5.318;2023-07-20T04:26:13;16.20;1.40
18392;DHT22;9322;50.932;5.318;2023-07-20T04:28:40;16.10;1.40
18392;DHT22;9322;50.932;5.318;2023-07-20T04:31:15;16.20;1.40
18392;DHT22;9322;50.932;5.318;2023-07-20T04:33:40;16.20;1.40
18392;DHT22;9322;50.932;5.318;2023-07-20T04:36:06;16.20;1.40
18392;DHT22;9322;50.932;5.318;2023-07-20T04:38:33;16.20;1.40
18392;DHT22;9322;50.932;5.318;2023-07-20T04:40:58;16.30;1.40
18392;DHT22;9322;50.932;5.318;2023-07-20T04:43:24;16.40;1.40
18392;DHT22;9322;50.932;5.318;2023-07-20T04:45:50;16.30;1.40
18392;DHT22;9322;50.932;5.318;2023-07-20T04:48:16;16.20;1.40
18392;DHT22;9322;50.932;5.318;2023-07-20T04:50:44;16.30;1.40
18392;DHT22;9322;50.932;5.318;2023-07-20T04:53:12;16.40;1.40
18392;DHT22;9322;50.932;5.318;2023-07-20T04:55:39;16.50;1.40
18392;DHT22;9322;50.932;5.318;2023-07-20T04:58:05;16.50;1.40
18392;DHT22;9322;50.932;5.318;2023-07-20T05:00:35;16.60;1.40
18392;DHT22;9322;50.932;5.318;2023-07-20T05:03:00;16.80;1.40
18392;DHT22;9322;50.932;5.318;2023-07-20T05:05:26;17.00;1.40
18392;DHT22;9322;50.932;5.318;2023-07-20T05:07:52;17.20;1.40
18392;DHT22;9322;50.932;5.318;2023-07-20T05:10:18;17.60;1.40
18392;DHT22;9322;50.932;5.318;2023-07-20T05:12:44;17.80;1.40
18392;DHT22;9322;50.932;5.318;2023-07-20T05:15:10;17.90;1.40
18392;DHT22;9322;50.932;5.318;2023-07-20T05:17:35;17.90;1.40
18392;DHT22;9322;50.932;5.318;2023-07-20T05:20:01;18.10;1.40
18392;DHT22;9322;50.932;5.318;2023-07-20T05:22:29;18.20;1.40
18392;DHT22;9322;50.932;5.318;2023-07-20T05:24:55;18.20;1.40
18392;DHT22;9322;50.932;5.318;2023-07-20T05:27:20;18.20;1.40
18392;DHT22;9322;50.932;5.318;2023-07-20T05:29:46;18.30;1.40
18392;DHT22;9322;50.932;5.318;2023-07-20T05:32:15;18.30;1.40
18392;DHT22;9322;50.932;5.318;2023-07-20T05:34:41;18.50;1.40
18392;DHT22;9322;50.932;5.318;2023-07-20T05:37:06;18.60;1.40
18392;DHT22;9322;50.932;5.318;2023-07-20T05:39:32;18.60;1.40
18392;DHT22;9322;50.932;5.318;2023-07-20T05:41:58;18.60;1.40
18392;DHT22;9322;50.932;5.318;2023-07-20T05:44:24;18.70;1.40
18392;DHT22;9322;50.932;5.318;2023-07-20T05:46:50;18.70;1.40
18392;DHT22;9322;50.932;5.318;2023-07-20T05:49:15;18.80;1.40
18392;DHT22;9322;50.932;5.318;2023-07-20T05:51:41;18.80;1.40
18392;DHT22;9322;50.932;5.318;2023-07-20T05:54:07;18.90;1.40
18392;DHT22;9322;50.932;5.318;2023-07-20T05:56:32;19.00;1.40
18392;DHT22;9322;50.932;5.318;2023-07-20T05:58:58;19.10;1.40
18392;DHT22;9322;50.932;5.318;2023-07-20T06:01:24;19.00;1.40
18392;DHT22;9322;50.932;5.318;2023-07-20T06:03:53;19.40;1.40
18392;DHT22;9322;50.932;5.318;2023-07-20T06:06:18;19.70;1.40
18392;DHT22;9322;50.932;5.318;2023-07-20T06:08:44;20.20;1.40
18392;DHT22;9322;50.932;5.318;2023-07-20T06:11:10;20.90;1.40
18392;DHT22;9322;50.932;5.318;2023-07-20T06:13:36;21.60;1.40
18392;DHT22;9322;50.932;5.318;2023-07-20T06:16:02;21.50;1.40
18392;DHT22;9322;50.932;5.318;2023-07-20T06:18:29;21.20;1.40
18392;DHT22;9322;50.932;5.318;2023-07-20T06:20:56;20.90;1.40
18392;DHT22;9322;50.932;5.318;2023-07-20T06:23:22;20.50;1.40
18392;DHT22;9322;50.932;5.318;2023-07-20T06:25:48;20.50;1.40
18392;DHT22;9322;50.932;5.318;2023-07-20T06:28:14;20.40;1.40
18392;DHT22;9322;50.932;5.318;2023-07-20T06:30:39;20.20;1.40
18392;DHT22;9322;50.932;5.318;2023-07-20T06:33:05;20.20;1.40
18392;DHT22;9322;50.932;5.318;2023-07-20T06:35:32;20.00;1.40
18392;DHT22;9322;50.932;5.318;2023-07-20T06:37:58;19.80;1.40
18392;DHT22;9322;50.932;5.318;2023-07-20T06:40:25;19.90;1.40
18392;DHT22;9322;50.932;5.318;2023-07-20T06:42:51;19.80;1.40
18392;DHT22;9322;50.932;5.318;2023-07-20T06:45:17;19.70;1.40
18392;DHT22;9322;50.932;5.318;2023-07-20T06:47:43;19.70;1.40
18392;DHT22;9322;50.932;5.318;2023-07-20T06:50:09;20.10;1.40
18392;DHT22;9322;50.932;5.318;2023-07-20T06:52:36;20.60;1.40
18392;DHT22;9322;50.932;5.318;2023-07-20T06:55:02;20.80;1.40
18392;DHT22;9322;50.932;5.318;2023-07-20T06:57:28;20.90;1.40
18392;DHT22;9322;50.932;5.318;2023-07-20T06:59:53;20.70;1.40
18392;DHT22;9322;50.932;5.318;2023-07-20T07:02:19;21.00;1.40
18392;DHT22;9322;50.932;5.318;2023-07-20T07:04:45;21.00;1.40
18392;DHT22;9322;50.932;5.318;2023-07-20T07:07:14;20.80;1.40
18392;DHT22;9322;50.932;5.318;2023-07-20T07:09:40;20.90;1.40
18392;DHT22;9322;50.932;5.318;2023-07-20T07:12:07;21.10;1.40
18392;DHT22;9322;50.932;5.318;2023-07-20T07:14:33;20.90;1.40
18392;DHT22;9322;50.932;5.318;2023-07-20T07:16:58;20.90;1.40
18392;DHT22;9322;50.932;5.318;2023-07-20T07:19:24;21.10;1.40
18392;DHT22;9322;50.932;5.318;2023-07-20T07:21:50;21.20;1.40
18392;DHT22;9322;50.932;5.318;2023-07-20T07:24:16;21.00;1.40
18392;DHT22;9322;50.932;5.318;2023-07-20T07:26:42;20.90;1.40
18392;DHT22;9322;50.932;5.318;2023-07-20T07:29:08;20.90;1.40
18392;DHT22;9322;50.932;5.318;2023-07-20T07:31:36;21.00;1.40
18392;DHT22;9322;50.932;5.318;2023-07-20T07:34:03;21.00;1.40
18392;DHT22;9322;50.932;5.318;2023-07-20T07:36:28;21.30;1.40
18392;DHT22;9322;50.932;5.318;2023-07-20T07:38:54;21.40;1.40
18392;DHT22;9322;50.932;5.318;2023-07-20T07:41:20;22.00;1.40
18392;DHT22;9322;50.932;5.318;2023-07-20T07:43:46;22.00;1.40
18392;DHT22;9322;50.932;5.318;2023-07-20T07:46:12;22.40;1.40
18392;DHT22;9322;50.932;5.318;2023-07-20T07:48:39;23.10;1.40
18392;DHT22;9322;50.932;5.318;2023-07-20T07:51:05;23.30;1.40
18392;DHT22;9322;50.932;5.318;2023-07-20T07:53:31;23.80;1.40
18392;DHT22;9322;50.932;5.318;2023-07-20T07:55:59;25.20;1.40
18392;DHT22;9322;50.932;5.318;2023-07-20T07:58:26;25.90;1.40
18392;DHT22;9322;50.932;5.318;2023-07-20T08:00:51;24.60;1.40
18392;DHT22;9322;50.932;5.318;2023-07-20T08:03:17;24.80;1.40
18392;DHT22;9322;50.932;5.318;2023-07-20T08:05:44;26.00;1.40
18392;DHT22;9322;50.932;5.318;2023-07-20T08:08:09;25.90;1.40
18392;DHT22;9322;50.932;5.318;2023-07-20T08:10:35;25.50;1.40
18392;DHT22;9322;50.932;5.318;2023-07-20T08:13:01;25.00;1.40
18392;DHT22;9322;50.932;5.318;2023-07-20T08:15:26;24.30;1.40
18392;DHT22;9322;50.932;5.318;2023-07-20T08:17:52;24.30;1.40
18392;DHT22;9322;50.932;5.318;2023-07-20T08:20:18;24.30;1.40
18392;DHT22;9322;50.932;5.318;2023-07-20T08:22:44;24.40;1.40
18392;DHT22;9322;50.932;5.318;2023-07-20T08:25:09;24.30;1.40
18392;DHT22;9322;50.932;5.318;2023-07-20T08:27:36;24.60;1.40
18392;DHT22;9322;50.932;5.318;2023-07-20T08:30:03;25.30;1.40
18392;DHT22;9322;50.932;5.318;2023-07-20T08:32:30;25.50;1.40
18392;DHT22;9322;50.932;5.318;2023-07-20T08:34:55;25.60;1.40
18392;DHT22;9322;50.932;5.318;2023-07-20T08:37:22;26.20;1.40
18392;DHT22;9322;50.932;5.318;2023-07-20T08:39:48;26.30;1.40
18392;DHT22;9322;50.932;5.318;2023-07-20T08:42:14;26.40;1.40
18392;DHT22;9322;50.932;5.318;2023-07-20T08:44:42;27.00;1.40
18392;DHT22;9322;50.932;5.318;2023-07-20T08:47:09;28.60;1.40
18392;DHT22;9322;50.932;5.318;2023-07-20T08:49:36;29.90;1.40
18392;DHT22;9322;50.932;5.318;2023-07-20T08:52:04;30.00;1.40
18392;DHT22;9322;50.932;5.318;2023-07-20T08:54:30;30.70;1.40
18392;DHT22;9322;50.932;5.318;2023-07-20T08:57:03;31.70;1.40
18392;DHT22;9322;50.932;5.318;2023-07-20T08:59:30;32.70;1.40
18392;DHT22;9322;50.932;5.318;2023-07-20T09:01:59;32.90;1.40
18392;DHT22;9322;50.932;5.318;2023-07-20T09:04:26;33.30;1.40
18392;DHT22;9322;50.932;5.318;2023-07-20T09:06:51;34.30;1.40
18392;DHT22;9322;50.932;5.318;2023-07-20T09:09:18;33.70;1.40
18392;DHT22;9322;50.932;5.318;2023-07-20T09:11:47;33.10;1.40
18392;DHT22;9322;50.932;5.318;2023-07-20T09:14:13;33.50;1.40
18392;DHT22;9322;50.932;5.318;2023-07-20T09:16:49;32.40;1.40
18392;DHT22;9322;50.932;5.318;2023-07-20T09:19:18;31.00;1.40
18392;DHT22;9322;50.932;5.318;2023-07-20T09:21:45;30.70;1.40
18392;DHT22;9322;50.932;5.318;2023-07-20T09:24:12;31.40;1.40
18392;DHT22;9322;50.932;5.318;2023-07-20T09:26:42;32.10;1.40
18392;DHT22;9322;50.932;5.318;2023-07-20T09:29:11;32.10;1.40
18392;DHT22;9322;50.932;5.318;2023-07-20T09:31:37;31.20;1.40
18392;DHT22;9322;50.932;5.318;2023-07-20T09:34:04;30.50;1.40
18392;DHT22;9322;50.932;5.318;2023-07-20T09:36:33;29.40;1.40
18392;DHT22;9322;50.932;5.318;2023-07-20T09:39:00;28.70;1.40
18392;DHT22;9322;50.932;5.318;2023-07-20T09:41:26;28.20;1.40
18392;DHT22;9322;50.932;5.318;2023-07-20T09:43:53;29.60;1.40
18392;DHT22;9322;50.932;5.318;2023-07-20T09:46:19;30.30;1.40
18392;DHT22;9322;50.932;5.318;2023-07-20T09:48:52;30.20;1.40
18392;DHT22;9322;50.932;5.318;2023-07-20T09:51:21;30.60;1.40
18392;DHT22;9322;50.932;5.318;2023-07-20T09:53:48;30.70;1.40
18392;DHT22;9322;50.932;5.318;2023-07-20T09:56:16;31.70;1.40
18392;DHT22;9322;50.932;5.318;2023-07-20T09:58:44;33.20;1.40
18392;DHT22;9322;50.932;5.318;2023-07-20T10:01:12;33.20;1.40
18392;DHT22;9322;50.932;5.318;2023-07-20T10:03:41;33.40;1.40
18392;DHT22;9322;50.932;5.318;2023-07-20T10:06:14;34.10;1.40
18392;DHT22;9322;50.932;5.318;2023-07-20T10:08:41;35.10;1.40
18392;DHT22;9322;50.932;5.318;2023-07-20T10:11:08;35.50;1.40
18392;DHT22;9322;50.932;5.318;2023-07-20T10:13:38;35.20;1.40
18392;DHT22;9322;50.932;5.318;2023-07-20T10:16:10;33.80;1.40
18392;DHT22;9322;50.932;5.318;2023-07-20T10:18:51;34.70;1.40
18392;DHT22;9322;50.932;5.318;2023-07-20T10:21:21;35.70;1.40
18392;DHT22;9322;50.932;5.318;2023-07-20T10:23:49;34.50;1.40
18392;DHT22;9322;50.932;5.318;2023-07-20T10:26:15;33.80;1.40
18392;DHT22;9322;50.932;5.318;2023-07-20T10:28:41;33.40;1.40
18392;DHT22;9322;50.932;5.318;2023-07-20T10:31:09;33.00;1.40
18392;DHT22;9322;50.932;5.318;2023-07-20T10:33:35;34.40;1.40
18392;DHT22;9322;50.932;5.318;2023-07-20T10:36:03;35.30;1.40
18392;DHT22;9322;50.932;5.318;2023-07-20T10:41:20;35.40;1.40
18392;DHT22;9322;50.932;5.318;2023-07-20T10:43:48;35.10;1.40
18392;DHT22;9322;50.932;5.318;2023-07-20T10:46:14;35.20;1.40
18392;DHT22;9322;50.932;5.318;2023-07-20T10:48:59;35.30;1.40
18392;DHT22;9322;50.932;5.318;2023-07-20T10:51:25;34.80;1.40
18392;DHT22;9322;50.932;5.318;2023-07-20T10:53:50;35.30;1.40
18392;DHT22;9322;50.932;5.318;2023-07-20T10:56:22;35.20;1.40
18392;DHT22;9322;50.932;5.318;2023-07-20T10:58:48;36.00;1.40
18392;DHT22;9322;50.932;5.318;2023-07-20T11:01:16;36.30;1.40
18392;DHT22;9322;50.932;5.318;2023-07-20T11:03:43;36.40;1.40
18392;DHT22;9322;50.932;5.318;2023-07-20T11:09:12;35.10;1.40
18392;DHT22;9322;50.932;5.318;2023-07-20T11:11:43;36.10;1.40
18392;DHT22;9322;50.932;5.318;2023-07-20T11:14:11;36.60;1.40
18392;DHT22;9322;50.932;5.318;2023-07-20T11:16:47;36.70;1.40
18392;DHT22;9322;50.932;5.318;2023-07-20T11:19:24;36.20;1.40
18392;DHT22;9322;50.932;5.318;2023-07-20T11:21:52;36.30;1.40
18392;DHT22;9322;50.932;5.318;2023-07-20T11:24:18;36.50;1.40
18392;DHT22;9322;50.932;5.318;2023-07-20T11:26:44;37.20;1.40
18392;DHT22;9322;50.932;5.318;2023-07-20T11:29:10;36.20;1.40
18392;DHT22;9322;50.932;5.318;2023-07-20T11:31:39;35.90;1.40
18392;DHT22;9322;50.932;5.318;2023-07-20T11:34:09;35.80;1.40
18392;DHT22;9322;50.932;5.318;2023-07-20T11:36:35;36.10;1.40
18392;DHT22;9322;50.932;5.318;2023-07-20T11:39:01;35.40;1.40
18392;DHT22;9322;50.932;5.318;2023-07-20T11:41:26;33.70;1.40
18392;DHT22;9322;50.932;5.318;2023-07-20T11:43:53;34.00;1.40
18392;DHT22;9322;50.932;5.318;2023-07-20T11:46:19;33.00;1.40
18392;DHT22;9322;50.932;5.318;2023-07-20T11:48:45;33.10;1.40
18392;DHT22;9322;50.932;5.318;2023-07-20T11:51:17;34.10;1.40
18392;DHT22;9322;50.932;5.318;2023-07-20T11:53:44;33.70;1.40
18392;DHT22;9322;50.932;5.318;2023-07-20T11:56:12;33.40;1.40
18392;DHT22;9322;50.932;5.318;2023-07-20T11:58:47;34.10;1.40
18392;DHT22;9322;50.932;5.318;2023-07-20T12:01:13;34.10;1.40
18392;DHT22;9322;50.932;5.318;2023-07-20T12:03:39;33.80;1.40
18392;DHT22;9322;50.932;5.318;2023-07-20T12:06:13;33.40;1.40
18392;DHT22;9322;50.932;5.318;2023-07-20T12:08:39;32.80;1.40
18392;DHT22;9322;50.932;5.318;2023-07-20T12:11:07;33.30;1.40
18392;DHT22;9322;50.932;5.318;2023-07-20T12:13:40;33.90;1.40
18392;DHT22;9322;50.932;5.318;2023-07-20T12:16:10;33.30;1.40
18392;DHT22;9322;50.932;5.318;2023-07-20T12:18:36;31.60;1.40
18392;DHT22;9322;50.932;5.318;2023-07-20T12:21:02;31.60;1.40
18392;DHT22;9322;50.932;5.318;2023-07-20T12:23:35;32.00;1.40
18392;DHT22;9322;50.932;5.318;2023-07-20T12:26:01;32.00;1.40
18392;DHT22;9322;50.932;5.318;2023-07-20T12:28:27;31.70;1.40
18392;DHT22;9322;50.932;5.318;2023-07-20T12:30:52;31.40;1.40
18392;DHT22;9322;50.932;5.318;2023-07-20T12:33:22;31.20;1.40
18392;DHT22;9322;50.932;5.318;2023-07-20T12:35:49;30.80;1.40
18392;DHT22;9322;50.932;5.318;2023-07-20T12:38:15;30.90;1.40
18392;DHT22;9322;50.932;5.318;2023-07-20T12:40:41;30.90;1.40
18392;DHT22;9322;50.932;5.318;2023-07-20T12:43:07;30.80;1.40
18392;DHT22;9322;50.932;5.318;2023-07-20T12:45:33;30.80;1.40
18392;DHT22;9322;50.932;5.318;2023-07-20T12:47:59;30.80;1.40
18392;DHT22;9322;50.932;5.318;2023-07-20T12:50:26;29.80;1.40
18392;DHT22;9322;50.932;5.318;2023-07-20T12:52:52;30.10;1.40
18392;DHT22;9322;50.932;5.318;2023-07-20T12:55:18;30.00;1.40
18392;DHT22;9322;50.932;5.318;2023-07-20T12:57:43;30.10;1.40
18392;DHT22;9322;50.932;5.318;2023-07-20T13:00:10;30.20;1.40
18392;DHT22;9322;50.932;5.318;2023-07-20T13:02:38;29.50;1.40
18392;DHT22;9322;50.932;5.318;2023-07-20T13:05:04;29.70;1.40
18392;DHT22;9322;50.932;5.318;2023-07-20T13:07:31;29.90;1.40
18392;DHT22;9322;50.932;5.318;2023-07-20T13:09:58;30.00;1.40
18392;DHT22;9322;50.932;5.318;2023-07-20T13:12:29;30.10;1.40
18392;DHT22;9322;50.932;5.318;2023-07-20T13:14:55;29.80;1.40
18392;DHT22;9322;50.932;5.318;2023-07-20T13:17:22;29.30;1.40
18392;DHT22;9322;50.932;5.318;2023-07-20T13:19:48;29.10;1.40
18392;DHT22;9322;50.932;5.318;2023-07-20T13:22:14;28.80;1.40
18392;DHT22;9322;50.932;5.318;2023-07-20T13:24:41;29.00;1.40
18392;DHT22;9322;50.932;5.318;2023-07-20T13:27:07;29.10;1.40
18392;DHT22;9322;50.932;5.318;2023-07-20T13:29:32;29.00;1.40
18392;DHT22;9322;50.932;5.318;2023-07-20T13:31:58;29.00;1.40
18392;DHT22;9322;50.932;5.318;2023-07-20T13:34:25;29.00;1.40
18392;DHT22;9322;50.932;5.318;2023-07-20T13:36:51;29.20;1.40
18392;DHT22;9322;50.932;5.318;2023-07-20T13:39:17;29.20;1.40
18392;DHT22;9322;50.932;5.318;2023-07-20T13:41:43;29.20;1.40
18392;DHT22;9322;50.932;5.318;2023-07-20T13:44:09;29.20;1.40
18392;DHT22;9322;50.932;5.318;2023-07-20T13:46:34;29.20;1.40
18392;DHT22;9322;50.932;5.318;2023-07-20T13:49:00;29.10;1.40
18392;DHT22;9322;50.932;5.318;2023-07-20T13:51:26;28.80;1.40
18392;DHT22;9322;50.932;5.318;2023-07-20T13:53:51;28.10;1.40
18392;DHT22;9322;50.932;5.318;2023-07-20T13:56:17;28.10;1.40
18392;DHT22;9322;50.932;5.318;2023-07-20T13:58:43;28.00;1.40
18392;DHT22;9322;50.932;5.318;2023-07-20T14:01:08;28.30;1.40
18392;DHT22;9322;50.932;5.318;2023-07-20T14:03:34;28.10;1.40
18392;DHT22;9322;50.932;5.318;2023-07-20T14:06:00;28.10;1.40
18392;DHT22;9322;50.932;5.318;2023-07-20T14:08:26;28.00;1.40
18392;DHT22;9322;50.932;5.318;2023-07-20T14:10:51;27.80;1.40
18392;DHT22;9322;50.932;5.318;2023-07-20T14:13:17;27.90;1.40
18392;DHT22;9322;50.932;5.318;2023-07-20T14:15:43;27.70;1.40
18392;DHT22;9322;50.932;5.318;2023-07-20T14:18:08;27.80;1.40
18392;DHT22;9322;50.932;5.318;2023-07-20T14:20:34;27.40;1.40
18392;DHT22;9322;50.932;5.318;2023-07-20T14:23:00;27.30;1.40
18392;DHT22;9322;50.932;5.318;2023-07-20T14:25:26;27.60;1.40
18392;DHT22;9322;50.932;5.318;2023-07-20T14:27:51;27.60;1.40
18392;DHT22;9322;50.932;5.318;2023-07-20T14:30:17;27.40;1.40
18392;DHT22;9322;50.932;5.318;2023-07-20T14:32:43;27.60;1.40
18392;DHT22;9322;50.932;5.318;2023-07-20T14:35:09;27.60;1.40
18392;DHT22;9322;50.932;5.318;2023-07-20T14:37:34;27.40;1.40
18392;DHT22;9322;50.932;5.318;2023-07-20T14:40:00;26.90;1.40
18392;DHT22;9322;50.932;5.318;2023-07-20T14:42:26;26.60;1.40
18392;DHT22;9322;50.932;5.318;2023-07-20T14:44:52;26.60;1.40
18392;DHT22;9322;50.932;5.318;2023-07-20T14:47:18;26.80;1.40
18392;DHT22;9322;50.932;5.318;2023-07-20T14:49:43;26.80;1.40
18392;DHT22;9322;50.932;5.318;2023-07-20T14:52:09;27.00;1.40
18392;DHT22;9322;50.932;5.318;2023-07-20T14:54:35;27.20;1.40
18392;DHT22;9322;50.932;5.318;2023-07-20T14:57:01;27.30;1.40
18392;DHT22;9322;50.932;5.318;2023-07-20T14:59:26;26.60;1.40
18392;DHT22;9322;50.932;5.318;2023-07-20T15:01:52;26.70;1.40
18392;DHT22;9322;50.932;5.318;2023-07-20T15:04:18;26.90;1.40
18392;DHT22;9322;50.932;5.318;2023-07-20T15:06:44;27.10;1.40
18392;DHT22;9322;50.932;5.318;2023-07-20T15:09:09;27.00;1.40
18392;DHT22;9322;50.932;5.318;2023-07-20T15:11:36;27.20;1.40
18392;DHT22;9322;50.932;5.318;2023-07-20T15:14:01;27.10;1.40
18392;DHT22;9322;50.932;5.318;2023-07-20T15:16:27;26.90;1.40
18392;DHT22;9322;50.932;5.318;2023-07-20T15:18:53;26.90;1.40
18392;DHT22;9322;50.932;5.318;2023-07-20T15:21:18;26.90;1.40
18392;DHT22;9322;50.932;5.318;2023-07-20T15:23:44;27.00;1.40
18392;DHT22;9322;50.932;5.318;2023-07-20T15:26:10;26.70;1.40
18392;DHT22;9322;50.932;5.318;2023-07-20T15:28:40;26.40;1.40
18392;DHT22;9322;50.932;5.318;2023-07-20T15:31:06;26.00;1.40
18392;DHT22;9322;50.932;5.318;2023-07-20T15:33:32;25.60;1.40
18392;DHT22;9322;50.932;5.318;2023-07-20T15:35:58;25.80;1.40
18392;DHT22;9322;50.932;5.318;2023-07-20T15:38:23;25.60;1.40
18392;DHT22;9322;50.932;5.318;2023-07-20T15:40:49;25.40;1.40
18392;DHT22;9322;50.932;5.318;2023-07-20T15:43:15;25.40;1.40
18392;DHT22;9322;50.932;5.318;2023-07-20T15:45:41;25.60;1.40
18392;DHT22;9322;50.932;5.318;2023-07-20T15:48:07;25.40;1.40
18392;DHT22;9322;50.932;5.318;2023-07-20T15:50:32;25.20;1.40
18392;DHT22;9322;50.932;5.318;2023-07-20T15:52:58;24.90;1.40
18392;DHT22;9322;50.932;5.318;2023-07-20T15:55:23;25.00;1.40
18392;DHT22;9322;50.932;5.318;2023-07-20T15:57:49;24.90;1.40
18392;DHT22;9322;50.932;5.318;2023-07-20T16:00:15;24.90;1.40
18392;DHT22;9322;50.932;5.318;2023-07-20T16:02:41;25.10;1.40
18392;DHT22;9322;50.932;5.318;2023-07-20T16:05:07;25.00;1.40
18392;DHT22;9322;50.932;5.318;2023-07-20T16:07:33;25.00;1.40
18392;DHT22;9322;50.932;5.318;2023-07-20T16:09:59;25.10;1.40
18392;DHT22;9322;50.932;5.318;2023-07-20T16:12:27;25.20;1.40